Search for airport 
image banner adimage banner adimage banner ad
image banner ad

54CN - Akin

Located in Placerville, United States

ICAO - 54CN, IATA -

Data provided by Airmate  

General information

Coordinates: N38°45'15" W120°53'57"
Elevation is 1595 feet MSL.
Magnetic variation is 16° East
View others Airports in California

Operational data

Special qualification required
Current time UTC:
Current local time:
Weather at : KPVF - Placerville ( 13 km )
METAR: KPVF 221335Z AUTO 10004KT 10SM CLR 17/06 A2995 RMK AO1
View NOTAMs / SUP AIP / TFR affecting this airport [VIEW]
Communications frequencies: [VIEW]

Runways:

RWY identifierQFULength (ft)Width (ft)SurfaceLDA (ft)
09180060EARTH
27180060EARTH

Airport contact information

Address: Placerville United States

Satellite view of 54CN